sensor_id;sensor_type;location;lat;lon;timestamp;pressure;altitude;pressure_sealevel;temperature;humidity
78210;BME280;67485;48.816;9.930;2023-05-07T00:01:56;96757.16;;;12.24;79.31
78210;BME280;67485;48.816;9.930;2023-05-07T00:04:21;96750.81;;;12.31;79.83
78210;BME280;67485;48.816;9.930;2023-05-07T00:06:47;96750.81;;;12.31;79.59
78210;BME280;67485;48.816;9.930;2023-05-07T00:09:13;96755.31;;;12.27;79.39
78210;BME280;67485;48.816;9.930;2023-05-07T00:11:38;96755.31;;;12.27;79.74
78210;BME280;67485;48.816;9.930;2023-05-07T00:14:04;96765.75;;;12.29;79.60
78210;BME280;67485;48.816;9.930;2023-05-07T00:16:30;96765.75;;;12.29;79.70
78210;BME280;67485;48.816;9.930;2023-05-07T00:18:55;96768.16;;;12.35;79.34
78210;BME280;67485;48.816;9.930;2023-05-07T00:21:21;96763.25;;;12.26;79.85
78210;BME280;67485;48.816;9.930;2023-05-07T00:23:47;96759.69;;;12.27;79.54
78210;BME280;67485;48.816;9.930;2023-05-07T00:26:13;96762.22;;;12.30;79.79
78210;BME280;67485;48.816;9.930;2023-05-07T00:28:39;96749.97;;;12.29;80.38
78210;BME280;67485;48.816;9.930;2023-05-07T00:31:05;96758.75;;;12.29;80.24
78210;BME280;67485;48.816;9.930;2023-05-07T00:33:31;96764.25;;;12.22;80.34
78210;BME280;67485;48.816;9.930;2023-05-07T00:35:56;96755.44;;;12.23;80.98
78210;BME280;67485;48.816;9.930;2023-05-07T00:38:22;96749.63;;;12.14;80.78
78210;BME280;67485;48.816;9.930;2023-05-07T00:40:48;96744.59;;;12.07;80.83
78210;BME280;67485;48.816;9.930;2023-05-07T00:43:13;96743.81;;;12.05;81.25
78210;BME280;67485;48.816;9.930;2023-05-07T00:45:40;96738.56;;;12.05;81.49
78210;BME280;67485;48.816;9.930;2023-05-07T00:48:06;96743.06;;;12.01;80.91
78210;BME280;67485;48.816;9.930;2023-05-07T00:50:32;96744.66;;;12.05;81.38
78210;BME280;67485;48.816;9.930;2023-05-07T00:52:58;96739.91;;;11.90;81.41
78210;BME280;67485;48.816;9.930;2023-05-07T00:55:25;96730.09;;;11.95;82.07
78210;BME280;67485;48.816;9.930;2023-05-07T00:57:51;96734.53;;;11.93;81.86
78210;BME280;67485;48.816;9.930;2023-05-07T01:00:17;96738.81;;;11.97;81.41
78210;BME280;67485;48.816;9.930;2023-05-07T01:02:44;96741.34;;;12.00;81.26
78210;BME280;67485;48.816;9.930;2023-05-07T01:05:15;96736.38;;;11.91;81.38
78210;BME280;67485;48.816;9.930;2023-05-07T01:07:41;96731.00;;;11.94;80.78
78210;BME280;67485;48.816;9.930;2023-05-07T01:10:08;96727.19;;;12.04;80.51
78210;BME280;67485;48.816;9.930;2023-05-07T01:12:37;96726.97;;;12.10;80.35
78210;BME280;67485;48.816;9.930;2023-05-07T01:15:04;96722.69;;;12.08;80.84
78210;BME280;67485;48.816;9.930;2023-05-07T01:17:35;96724.53;;;12.06;80.30
78210;BME280;67485;48.816;9.930;2023-05-07T01:20:01;96727.28;;;12.01;80.70
78210;BME280;67485;48.816;9.930;2023-05-07T01:22:32;96722.94;;;12.00;80.75
78210;BME280;67485;48.816;9.930;2023-05-07T01:24:58;96720.25;;;12.03;80.36
78210;BME280;67485;48.816;9.930;2023-05-07T01:27:27;96720.88;;;12.10;79.40
78210;BME280;67485;48.816;9.930;2023-05-07T01:29:53;96728.47;;;12.18;80.14
78210;BME280;67485;48.816;9.930;2023-05-07T01:32:23;96721.63;;;12.13;80.47
78210;BME280;67485;48.816;9.930;2023-05-07T01:34:50;96718.59;;;11.99;80.69
78210;BME280;67485;48.816;9.930;2023-05-07T01:37:18;96716.97;;;11.95;81.45
78210;BME280;67485;48.816;9.930;2023-05-07T01:39:44;96725.50;;;12.03;80.99
78210;BME280;67485;48.816;9.930;2023-05-07T01:42:10;96725.69;;;11.97;81.33
78210;BME280;67485;48.816;9.930;2023-05-07T01:44:35;96722.53;;;11.86;81.90
78210;BME280;67485;48.816;9.930;2023-05-07T01:47:01;96721.66;;;11.85;82.56
78210;BME280;67485;48.816;9.930;2023-05-07T01:49:28;96723.59;;;11.80;82.01
78210;BME280;67485;48.816;9.930;2023-05-07T01:51:54;96727.69;;;11.89;81.77
78210;BME280;67485;48.816;9.930;2023-05-07T01:54:25;96724.19;;;11.88;82.06
78210;BME280;67485;48.816;9.930;2023-05-07T01:56:55;96719.09;;;11.83;81.80
78210;BME280;67485;48.816;9.930;2023-05-07T01:59:22;96724.75;;;11.71;82.64
78210;BME280;67485;48.816;9.930;2023-05-07T02:01:47;96717.50;;;11.79;81.87
78210;BME280;67485;48.816;9.930;2023-05-07T02:04:13;96716.63;;;11.79;81.77
78210;BME280;67485;48.816;9.930;2023-05-07T02:06:39;96715.59;;;11.83;81.84
78210;BME280;67485;48.816;9.930;2023-05-07T02:09:06;96717.28;;;11.86;81.62
78210;BME280;67485;48.816;9.930;2023-05-07T02:11:34;96711.47;;;11.76;81.83
78210;BME280;67485;48.816;9.930;2023-05-07T02:14:00;96707.22;;;11.72;82.13
78210;BME280;67485;48.816;9.930;2023-05-07T02:16:26;96700.22;;;11.72;82.13
78210;BME280;67485;48.816;9.930;2023-05-07T02:18:52;96707.97;;;11.75;82.25
78210;BME280;67485;48.816;9.930;2023-05-07T02:21:18;96704.66;;;11.70;81.92
78210;BME280;67485;48.816;9.930;2023-05-07T02:23:43;96703.94;;;11.65;82.68
78210;BME280;67485;48.816;9.930;2023-05-07T02:26:10;96703.44;;;11.80;82.03
78210;BME280;67485;48.816;9.930;2023-05-07T02:28:37;96710.19;;;11.88;81.94
78210;BME280;67485;48.816;9.930;2023-05-07T02:31:04;96710.72;;;11.72;82.08
78210;BME280;67485;48.816;9.930;2023-05-07T02:33:30;96710.28;;;11.58;82.55
78210;BME280;67485;48.816;9.930;2023-05-07T02:36:04;96714.56;;;11.62;82.87
78210;BME280;67485;48.816;9.930;2023-05-07T02:38:30;96708.44;;;11.61;82.79
78210;BME280;67485;48.816;9.930;2023-05-07T02:40:56;96700.81;;;11.54;82.72
78210;BME280;67485;48.816;9.930;2023-05-07T02:43:22;96709.91;;;11.43;83.41
78210;BME280;67485;48.816;9.930;2023-05-07T02:45:48;96710.16;;;11.62;82.73
78210;BME280;67485;48.816;9.930;2023-05-07T02:48:14;96718.16;;;11.58;82.72
78210;BME280;67485;48.816;9.930;2023-05-07T02:50:40;96715.41;;;11.34;83.26
78210;BME280;67485;48.816;9.930;2023-05-07T02:53:06;96718.75;;;11.39;83.35
78210;BME280;67485;48.816;9.930;2023-05-07T02:55:32;96707.47;;;11.37;83.38
78210;BME280;67485;48.816;9.930;2023-05-07T02:57:57;96702.31;;;11.34;83.24
78210;BME280;67485;48.816;9.930;2023-05-07T03:00:24;96701.41;;;11.35;82.83
78210;BME280;67485;48.816;9.930;2023-05-07T03:03:09;96717.13;;;11.35;83.43
78210;BME280;67485;48.816;9.930;2023-05-07T03:05:36;96705.59;;;11.41;82.99
78210;BME280;67485;48.816;9.930;2023-05-07T03:08:02;96699.59;;;11.37;83.17
78210;BME280;67485;48.816;9.930;2023-05-07T03:10:30;96701.69;;;11.26;83.17
78210;BME280;67485;48.816;9.930;2023-05-07T03:12:55;96695.13;;;11.12;83.79
78210;BME280;67485;48.816;9.930;2023-05-07T03:15:21;96699.47;;;11.13;83.79
78210;BME280;67485;48.816;9.930;2023-05-07T03:17:48;96713.28;;;11.18;83.65
78210;BME280;67485;48.816;9.930;2023-05-07T03:20:13;96706.84;;;11.29;83.16
78210;BME280;67485;48.816;9.930;2023-05-07T03:22:40;96708.84;;;11.21;83.04
78210;BME280;67485;48.816;9.930;2023-05-07T03:25:06;96697.91;;;11.06;83.88
78210;BME280;67485;48.816;9.930;2023-05-07T03:27:32;96707.41;;;11.10;84.21
78210;BME280;67485;48.816;9.930;2023-05-07T03:29:59;96713.47;;;11.12;84.27
78210;BME280;67485;48.816;9.930;2023-05-07T03:32:25;96712.47;;;11.16;83.86
78210;BME280;67485;48.816;9.930;2023-05-07T03:34:51;96717.03;;;11.10;83.88
78210;BME280;67485;48.816;9.930;2023-05-07T03:37:17;96723.13;;;11.10;83.77
78210;BME280;67485;48.816;9.930;2023-05-07T03:39:43;96713.81;;;11.30;83.24
78210;BME280;67485;48.816;9.930;2023-05-07T03:42:09;96717.78;;;11.43;82.05
78210;BME280;67485;48.816;9.930;2023-05-07T03:44:35;96711.97;;;11.60;80.80
78210;BME280;67485;48.816;9.930;2023-05-07T03:47:02;96710.03;;;11.65;80.80
78210;BME280;67485;48.816;9.930;2023-05-07T03:49:28;96694.41;;;11.62;80.00
78210;BME280;67485;48.816;9.930;2023-05-07T03:51:54;96701.00;;;11.74;80.46
78210;BME280;67485;48.816;9.930;2023-05-07T03:54:21;96692.44;;;11.69;79.63
78210;BME280;67485;48.816;9.930;2023-05-07T03:56:46;96700.28;;;11.71;79.42
78210;BME280;67485;48.816;9.930;2023-05-07T03:59:13;96701.81;;;11.76;79.81
78210;BME280;67485;48.816;9.930;2023-05-07T04:01:40;96696.91;;;11.65;79.56
78210;BME280;67485;48.816;9.930;2023-05-07T04:04:06;96703.25;;;11.60;79.83
78210;BME280;67485;48.816;9.930;2023-05-07T04:06:34;96716.44;;;11.57;80.08
78210;BME280;67485;48.816;9.930;2023-05-07T04:09:00;96707.66;;;11.58;80.37
78210;BME280;67485;48.816;9.930;2023-05-07T04:11:26;96712.84;;;11.61;80.33
78210;BME280;67485;48.816;9.930;2023-05-07T04:13:52;96715.28;;;11.65;80.13
78210;BME280;67485;48.816;9.930;2023-05-07T04:16:21;96721.69;;;11.57;80.17
78210;BME280;67485;48.816;9.930;2023-05-07T04:18:47;96721.66;;;11.58;80.18
78210;BME280;67485;48.816;9.930;2023-05-07T04:21:15;96729.38;;;11.63;80.35
78210;BME280;67485;48.816;9.930;2023-05-07T04:23:41;96723.84;;;11.72;79.69
78210;BME280;67485;48.816;9.930;2023-05-07T04:26:10;96722.31;;;11.65;79.93
78210;BME280;67485;48.816;9.930;2023-05-07T04:28:39;96715.72;;;11.80;79.33
78210;BME280;67485;48.816;9.930;2023-05-07T04:31:05;96715.19;;;11.97;78.06
78210;BME280;67485;48.816;9.930;2023-05-07T04:33:33;96711.47;;;12.28;76.27
78210;BME280;67485;48.816;9.930;2023-05-07T04:36:03;96719.63;;;12.45;75.54
78210;BME280;67485;48.816;9.930;2023-05-07T04:38:31;96721.59;;;12.64;75.10
78210;BME280;67485;48.816;9.930;2023-05-07T04:41:03;96716.84;;;12.74;74.26
78210;BME280;67485;48.816;9.930;2023-05-07T04:43:30;96719.31;;;12.78;73.98
78210;BME280;67485;48.816;9.930;2023-05-07T04:45:56;96722.06;;;12.99;73.05
78210;BME280;67485;48.816;9.930;2023-05-07T04:48:24;96719.88;;;13.10;72.77
78210;BME280;67485;48.816;9.930;2023-05-07T04:50:52;96724.78;;;13.20;72.39
78210;BME280;67485;48.816;9.930;2023-05-07T04:53:19;96727.06;;;13.29;72.42
78210;BME280;67485;48.816;9.930;2023-05-07T04:55:45;96733.34;;;13.49;71.45
78210;BME280;67485;48.816;9.930;2023-05-07T04:58:11;96729.56;;;13.56;71.10
78210;BME280;67485;48.816;9.930;2023-05-07T05:00:38;96728.84;;;13.95;68.89
78210;BME280;67485;48.816;9.930;2023-05-07T05:03:06;96737.66;;;13.94;69.71
78210;BME280;67485;48.816;9.930;2023-05-07T05:05:33;96733.72;;;14.04;69.33
78210;BME280;67485;48.816;9.930;2023-05-07T05:07:59;96734.25;;;14.13;69.36
78210;BME280;67485;48.816;9.930;2023-05-07T05:10:26;96740.06;;;14.21;68.90
78210;BME280;67485;48.816;9.930;2023-05-07T05:12:51;96732.56;;;14.32;69.19
78210;BME280;67485;48.816;9.930;2023-05-07T05:15:17;96733.25;;;14.36;69.23
78210;BME280;67485;48.816;9.930;2023-05-07T05:17:43;96745.88;;;14.50;67.58
78210;BME280;67485;48.816;9.930;2023-05-07T05:20:09;96738.19;;;14.64;66.57
78210;BME280;67485;48.816;9.930;2023-05-07T05:22:38;96748.09;;;14.59;67.89
78210;BME280;67485;48.816;9.930;2023-05-07T05:25:04;96748.75;;;14.64;67.67
78210;BME280;67485;48.816;9.930;2023-05-07T05:27:30;96747.94;;;14.62;68.49
78210;BME280;67485;48.816;9.930;2023-05-07T05:29:56;96752.47;;;14.60;68.65
78210;BME280;67485;48.816;9.930;2023-05-07T05:32:22;96758.66;;;14.59;68.08
78210;BME280;67485;48.816;9.930;2023-05-07T05:34:49;96757.84;;;14.57;68.76
78210;BME280;67485;48.816;9.930;2023-05-07T05:37:15;96752.31;;;14.63;68.24
78210;BME280;67485;48.816;9.930;2023-05-07T05:39:41;96747.16;;;14.81;67.81
78210;BME280;67485;48.816;9.930;2023-05-07T05:42:09;96749.22;;;14.74;67.93
78210;BME280;67485;48.816;9.930;2023-05-07T05:44:35;96750.59;;;14.83;67.40
78210;BME280;67485;48.816;9.930;2023-05-07T05:47:01;96747.41;;;14.76;67.47
78210;BME280;67485;48.816;9.930;2023-05-07T05:49:29;96746.03;;;14.67;67.72
78210;BME280;67485;48.816;9.930;2023-05-07T05:51:55;96749.44;;;14.49;68.56
78210;BME280;67485;48.816;9.930;2023-05-07T05:54:22;96762.88;;;14.42;69.42
78210;BME280;67485;48.816;9.930;2023-05-07T05:56:48;96749.56;;;14.46;69.11
78210;BME280;67485;48.816;9.930;2023-05-07T05:59:15;96760.63;;;14.74;67.70
78210;BME280;67485;48.816;9.930;2023-05-07T06:01:40;96758.66;;;15.56;66.08
78210;BME280;67485;48.816;9.930;2023-05-07T06:04:06;96753.19;;;15.97;63.70
78210;BME280;67485;48.816;9.930;2023-05-07T06:06:33;96743.09;;;16.58;62.50
78210;BME280;67485;48.816;9.930;2023-05-07T06:08:59;96754.09;;;16.15;63.61
78210;BME280;67485;48.816;9.930;2023-05-07T06:11:32;96754.09;;;15.79;64.76
78210;BME280;67485;48.816;9.930;2023-05-07T06:13:58;96757.16;;;15.69;65.01
78210;BME280;67485;48.816;9.930;2023-05-07T06:16:24;96756.38;;;15.67;64.89
78210;BME280;67485;48.816;9.930;2023-05-07T06:18:50;96757.88;;;16.10;63.73
78210;BME280;67485;48.816;9.930;2023-05-07T06:21:16;96752.75;;;16.59;61.90
78210;BME280;67485;48.816;9.930;2023-05-07T06:23:42;96751.81;;;16.60;61.63
78210;BME280;67485;48.816;9.930;2023-05-07T06:26:08;96754.91;;;17.20;60.42
78210;BME280;67485;48.816;9.930;2023-05-07T06:28:38;96753.03;;;17.38;59.85
78210;BME280;67485;48.816;9.930;2023-05-07T06:31:15;96756.16;;;17.12;61.47
78210;BME280;67485;48.816;9.930;2023-05-07T06:33:46;96757.38;;;17.07;61.91
78210;BME280;67485;48.816;9.930;2023-05-07T06:36:12;96749.78;;;17.32;60.24
78210;BME280;67485;48.816;9.930;2023-05-07T06:38:38;96760.00;;;17.07;61.56
78210;BME280;67485;48.816;9.930;2023-05-07T06:41:05;96762.94;;;16.67;63.01
78210;BME280;67485;48.816;9.930;2023-05-07T06:43:31;96760.00;;;17.07;61.58
78210;BME280;67485;48.816;9.930;2023-05-07T06:46:15;96760.34;;;18.12;58.92
78210;BME280;67485;48.816;9.930;2023-05-07T06:48:41;96763.09;;;18.72;58.03
78210;BME280;67485;48.816;9.930;2023-05-07T06:51:07;96760.63;;;18.83;57.03
78210;BME280;67485;48.816;9.930;2023-05-07T06:53:33;96762.00;;;18.60;57.37
78210;BME280;67485;48.816;9.930;2023-05-07T06:56:00;96762.09;;;18.58;57.63
78210;BME280;67485;48.816;9.930;2023-05-07T06:58:26;96765.53;;;18.30;57.52
78210;BME280;67485;48.816;9.930;2023-05-07T07:00:52;96774.72;;;18.24;58.36
78210;BME280;67485;48.816;9.930;2023-05-07T07:03:18;96764.13;;;18.08;59.47
78210;BME280;67485;48.816;9.930;2023-05-07T07:05:44;96765.41;;;18.17;58.87
78210;BME280;67485;48.816;9.930;2023-05-07T07:08:10;96773.63;;;18.43;58.67
78210;BME280;67485;48.816;9.930;2023-05-07T07:10:36;96768.03;;;18.78;57.53
78210;BME280;67485;48.816;9.930;2023-05-07T07:13:02;96764.06;;;19.14;55.49
78210;BME280;67485;48.816;9.930;2023-05-07T07:15:28;96768.63;;;19.26;54.11
78210;BME280;67485;48.816;9.930;2023-05-07T07:17:55;96763.84;;;19.46;54.60
78210;BME280;67485;48.816;9.930;2023-05-07T07:20:22;96759.16;;;20.06;52.64
78210;BME280;67485;48.816;9.930;2023-05-07T07:22:48;96761.03;;;20.18;52.91
78210;BME280;67485;48.816;9.930;2023-05-07T07:25:15;96765.41;;;19.92;53.02
78210;BME280;67485;48.816;9.930;2023-05-07T07:27:41;96765.56;;;19.47;54.68
78210;BME280;67485;48.816;9.930;2023-05-07T07:30:08;96766.91;;;19.11;55.18
78210;BME280;67485;48.816;9.930;2023-05-07T07:32:37;96766.72;;;19.00;55.64
78210;BME280;67485;48.816;9.930;2023-05-07T07:35:03;96763.59;;;19.07;55.91
78210;BME280;67485;48.816;9.930;2023-05-07T07:37:30;96761.41;;;19.00;55.76
78210;BME280;67485;48.816;9.930;2023-05-07T07:39:56;96768.50;;;18.99;55.63
78210;BME280;67485;48.816;9.930;2023-05-07T07:42:22;96757.09;;;18.68;56.87
78210;BME280;67485;48.816;9.930;2023-05-07T07:44:48;96766.84;;;18.53;57.66
78210;BME280;67485;48.816;9.930;2023-05-07T07:47:16;96772.09;;;18.39;57.53
78210;BME280;67485;48.816;9.930;2023-05-07T07:49:43;96770.00;;;18.44;57.68
78210;BME280;67485;48.816;9.930;2023-05-07T07:52:09;96770.09;;;18.42;57.90
78210;BME280;67485;48.816;9.930;2023-05-07T07:54:36;96770.28;;;18.70;56.13
78210;BME280;67485;48.816;9.930;2023-05-07T07:57:04;96770.09;;;18.87;55.80
78210;BME280;67485;48.816;9.930;2023-05-07T07:59:32;96775.63;;;18.84;56.50
78210;BME280;67485;48.816;9.930;2023-05-07T08:01:58;96769.84;;;19.06;54.57
78210;BME280;67485;48.816;9.930;2023-05-07T08:04:26;96766.81;;;19.12;53.51
78210;BME280;67485;48.816;9.930;2023-05-07T08:06:53;96762.56;;;18.95;54.25
78210;BME280;67485;48.816;9.930;2023-05-07T08:09:20;96760.53;;;19.57;53.97
78210;BME280;67485;48.816;9.930;2023-05-07T08:11:47;96762.78;;;20.45;53.40
78210;BME280;67485;48.816;9.930;2023-05-07T08:14:13;96763.88;;;20.68;52.47
78210;BME280;67485;48.816;9.930;2023-05-07T08:16:42;96778.34;;;20.51;51.61
78210;BME280;67485;48.816;9.930;2023-05-07T08:19:07;96772.81;;;20.54;50.81
78210;BME280;67485;48.816;9.930;2023-05-07T08:21:34;96780.75;;;20.01;51.41
78210;BME280;67485;48.816;9.930;2023-05-07T08:24:00;96775.56;;;19.85;53.67
78210;BME280;67485;48.816;9.930;2023-05-07T08:26:26;96774.88;;;20.23;54.16
78210;BME280;67485;48.816;9.930;2023-05-07T08:28:51;96764.91;;;20.53;54.39
78210;BME280;67485;48.816;9.930;2023-05-07T08:31:17;96762.22;;;20.80;53.35
78210;BME280;67485;48.816;9.930;2023-05-07T08:33:44;96776.16;;;20.71;51.27
78210;BME280;67485;48.816;9.930;2023-05-07T08:36:10;96768.38;;;21.06;49.58
78210;BME280;67485;48.816;9.930;2023-05-07T08:38:36;96763.38;;;20.76;51.52
78210;BME280;67485;48.816;9.930;2023-05-07T08:41:02;96756.84;;;20.67;52.47
78210;BME280;67485;48.816;9.930;2023-05-07T08:43:31;96764.13;;;20.78;50.23
78210;BME280;67485;48.816;9.930;2023-05-07T08:46:00;96767.25;;;21.74;48.94
78210;BME280;67485;48.816;9.930;2023-05-07T08:48:30;96762.38;;;22.40;47.17
78210;BME280;67485;48.816;9.930;2023-05-07T08:51:05;96749.19;;;23.31;43.87
78210;BME280;67485;48.816;9.930;2023-05-07T08:53:31;96758.53;;;23.14;43.38
78210;BME280;67485;48.816;9.930;2023-05-07T08:55:58;96755.50;;;23.64;41.48
78210;BME280;67485;48.816;9.930;2023-05-07T08:58:24;96753.09;;;23.27;43.51
78210;BME280;67485;48.816;9.930;2023-05-07T09:00:51;96751.63;;;23.45;41.52
78210;BME280;67485;48.816;9.930;2023-05-07T09:03:18;96760.97;;;23.28;42.31
78210;BME280;67485;48.816;9.930;2023-05-07T09:05:48;96751.34;;;23.71;41.38
78210;BME280;67485;48.816;9.930;2023-05-07T09:08:16;96757.44;;;23.62;40.58
78210;BME280;67485;48.816;9.930;2023-05-07T09:10:43;96749.72;;;24.35;41.34
78210;BME280;67485;48.816;9.930;2023-05-07T09:13:11;96736.84;;;24.83;39.30
78210;BME280;67485;48.816;9.930;2023-05-07T09:15:40;96745.59;;;24.52;40.41
78210;BME280;67485;48.816;9.930;2023-05-07T09:18:06;96747.06;;;24.56;41.71
78210;BME280;67485;48.816;9.930;2023-05-07T09:20:33;96748.56;;;23.61;41.61
78210;BME280;67485;48.816;9.930;2023-05-07T09:23:01;96751.34;;;23.48;42.20
78210;BME280;67485;48.816;9.930;2023-05-07T09:25:30;96754.59;;;22.73;43.70
78210;BME280;67485;48.816;9.930;2023-05-07T09:27:58;96752.97;;;22.59;43.66
78210;BME280;67485;48.816;9.930;2023-05-07T09:30:30;96757.28;;;22.48;43.34
78210;BME280;67485;48.816;9.930;2023-05-07T09:32:58;96753.50;;;22.75;43.12
78210;BME280;67485;48.816;9.930;2023-05-07T09:35:25;96750.47;;;22.80;43.27
78210;BME280;67485;48.816;9.930;2023-05-07T09:38:00;96755.16;;;22.54;44.59
78210;BME280;67485;48.816;9.930;2023-05-07T09:40:28;96752.28;;;22.91;42.83
78210;BME280;67485;48.816;9.930;2023-05-07T09:43:08;96749.13;;;25.16;39.14
78210;BME280;67485;48.816;9.930;2023-05-07T09:45:36;96752.44;;;26.41;37.56
78210;BME280;67485;48.816;9.930;2023-05-07T09:48:04;96746.00;;;27.00;36.64
78210;BME280;67485;48.816;9.930;2023-05-07T09:50:47;96748.41;;;25.86;36.59
78210;BME280;67485;48.816;9.930;2023-05-07T09:53:17;96743.47;;;24.67;38.64
78210;BME280;67485;48.816;9.930;2023-05-07T09:55:43;96753.00;;;24.27;38.75
78210;BME280;67485;48.816;9.930;2023-05-07T09:58:12;96743.34;;;24.48;38.13
78210;BME280;67485;48.816;9.930;2023-05-07T10:00:39;96742.44;;;24.26;39.37
78210;BME280;67485;48.816;9.930;2023-05-07T10:03:10;96740.81;;;25.40;36.66
78210;BME280;67485;48.816;9.930;2023-05-07T10:05:49;96735.59;;;24.33;38.01
78210;BME280;67485;48.816;9.930;2023-05-07T10:08:16;96731.41;;;23.64;39.40
78210;BME280;67485;48.816;9.930;2023-05-07T10:10:45;96740.53;;;23.61;39.86
78210;BME280;67485;48.816;9.930;2023-05-07T10:13:15;96741.59;;;23.82;40.33
78210;BME280;67485;48.816;9.930;2023-05-07T10:15:47;96735.31;;;23.71;40.82
78210;BME280;67485;48.816;9.930;2023-05-07T10:18:15;96743.66;;;23.78;39.85
78210;BME280;67485;48.816;9.930;2023-05-07T10:20:45;96741.50;;;23.72;40.34
78210;BME280;67485;48.816;9.930;2023-05-07T10:23:13;96730.44;;;24.20;39.93
78210;BME280;67485;48.816;9.930;2023-05-07T10:25:44;96733.19;;;25.46;37.27
78210;BME280;67485;48.816;9.930;2023-05-07T10:28:18;96737.97;;;25.42;38.16
78210;BME280;67485;48.816;9.930;2023-05-07T10:31:08;96736.09;;;25.73;36.09
78210;BME280;67485;48.816;9.930;2023-05-07T10:33:45;96739.16;;;25.59;36.99
78210;BME280;67485;48.816;9.930;2023-05-07T10:36:13;96733.34;;;25.23;38.44
78210;BME280;67485;48.816;9.930;2023-05-07T10:38:39;96732.69;;;24.04;39.42
78210;BME280;67485;48.816;9.930;2023-05-07T10:41:06;96739.38;;;23.98;41.01
78210;BME280;67485;48.816;9.930;2023-05-07T10:43:40;96731.47;;;23.41;40.64
78210;BME280;67485;48.816;9.930;2023-05-07T10:51:27;96742.81;;;22.75;44.69
78210;BME280;67485;48.816;9.930;2023-05-07T10:56:40;96737.00;;;22.81;43.24
78210;BME280;67485;48.816;9.930;2023-05-07T11:04:33;96739.13;;;22.54;43.49
78210;BME280;67485;48.816;9.930;2023-05-07T11:09:59;96739.63;;;22.59;43.25
78210;BME280;67485;48.816;9.930;2023-05-07T11:12:55;96732.31;;;22.61;43.24
78210;BME280;67485;48.816;9.930;2023-05-07T11:15:38;96734.81;;;22.40;43.00
78210;BME280;67485;48.816;9.930;2023-05-07T11:18:15;96732.75;;;22.43;42.49
78210;BME280;67485;48.816;9.930;2023-05-07T11:26:16;96708.09;;;24.31;40.54
78210;BME280;67485;48.816;9.930;2023-05-07T11:28:43;96706.81;;;24.25;40.44
78210;BME280;67485;48.816;9.930;2023-05-07T11:31:10;96718.47;;;23.92;40.34
78210;BME280;67485;48.816;9.930;2023-05-07T11:33:38;96704.59;;;24.52;37.92
78210;BME280;67485;48.816;9.930;2023-05-07T11:36:08;96712.16;;;23.93;39.41
78210;BME280;67485;48.816;9.930;2023-05-07T11:38:39;96703.94;;;24.81;39.28
78210;BME280;67485;48.816;9.930;2023-05-07T11:41:05;96710.34;;;24.68;38.80
78210;BME280;67485;48.816;9.930;2023-05-07T11:43:34;96705.69;;;24.28;39.38
78210;BME280;67485;48.816;9.930;2023-05-07T11:46:11;96704.13;;;24.25;39.49
78210;BME280;67485;48.816;9.930;2023-05-07T11:48:38;96696.09;;;23.93;39.85
78210;BME280;67485;48.816;9.930;2023-05-07T11:51:05;96700.53;;;23.71;39.97
78210;BME280;67485;48.816;9.930;2023-05-07T11:53:41;96701.28;;;23.51;41.40
78210;BME280;67485;48.816;9.930;2023-05-07T11:56:11;96701.22;;;23.73;41.53
78210;BME280;67485;48.816;9.930;2023-05-07T11:58:37;96699.94;;;23.56;41.32
78210;BME280;67485;48.816;9.930;2023-05-07T12:01:03;96701.31;;;23.05;42.34
78210;BME280;67485;48.816;9.930;2023-05-07T12:03:29;96705.63;;;22.72;43.33
78210;BME280;67485;48.816;9.930;2023-05-07T12:05:55;96695.69;;;23.08;42.51
78210;BME280;67485;48.816;9.930;2023-05-07T12:08:21;96688.88;;;23.50;41.97
78210;BME280;67485;48.816;9.930;2023-05-07T12:10:49;96693.16;;;23.85;41.50
78210;BME280;67485;48.816;9.930;2023-05-07T12:13:18;96694.44;;;23.69;41.53
78210;BME280;67485;48.816;9.930;2023-05-07T12:15:44;96688.53;;;23.54;41.92
78210;BME280;67485;48.816;9.930;2023-05-07T12:18:13;96694.53;;;23.79;40.90
78210;BME280;67485;48.816;9.930;2023-05-07T12:20:39;96690.53;;;23.73;40.74
78210;BME280;67485;48.816;9.930;2023-05-07T12:23:05;96700.25;;;23.74;40.92
78210;BME280;67485;48.816;9.930;2023-05-07T12:25:32;96699.25;;;23.98;41.03
78210;BME280;67485;48.816;9.930;2023-05-07T12:28:00;96703.28;;;23.81;40.69
78210;BME280;67485;48.816;9.930;2023-05-07T12:30:26;96699.50;;;23.95;41.30
78210;BME280;67485;48.816;9.930;2023-05-07T12:32:54;96692.19;;;23.97;42.00
78210;BME280;67485;48.816;9.930;2023-05-07T12:35:37;96706.50;;;24.07;42.56
78210;BME280;67485;48.816;9.930;2023-05-07T12:38:08;96710.19;;;23.84;42.63
78210;BME280;67485;48.816;9.930;2023-05-07T12:40:42;96688.59;;;24.40;40.69
78210;BME280;67485;48.816;9.930;2023-05-07T12:43:24;96694.63;;;25.06;39.61
78210;BME280;67485;48.816;9.930;2023-05-07T12:45:51;96696.25;;;24.97;40.72
78210;BME280;67485;48.816;9.930;2023-05-07T12:48:19;96697.25;;;25.27;38.92
78210;BME280;67485;48.816;9.930;2023-05-07T12:50:45;96689.22;;;25.87;37.62
78210;BME280;67485;48.816;9.930;2023-05-07T12:53:11;96702.84;;;25.14;38.72
78210;BME280;67485;48.816;9.930;2023-05-07T12:55:45;96704.31;;;24.34;39.86
78210;BME280;67485;48.816;9.930;2023-05-07T12:58:18;96693.78;;;24.21;40.06
78210;BME280;67485;48.816;9.930;2023-05-07T13:00:45;96697.19;;;24.23;40.36
78210;BME280;67485;48.816;9.930;2023-05-07T13:03:29;96695.28;;;24.13;40.23
78210;BME280;67485;48.816;9.930;2023-05-07T13:05:58;96698.41;;;23.75;41.70
78210;BME280;67485;48.816;9.930;2023-05-07T13:08:26;96693.94;;;23.75;40.43
78210;BME280;67485;48.816;9.930;2023-05-07T13:10:52;96696.06;;;24.04;41.23
78210;BME280;67485;48.816;9.930;2023-05-07T13:13:21;96696.56;;;23.87;42.07
78210;BME280;67485;48.816;9.930;2023-05-07T13:15:47;96699.88;;;23.35;42.16
78210;BME280;67485;48.816;9.930;2023-05-07T13:18:14;96698.16;;;23.11;42.00
78210;BME280;67485;48.816;9.930;2023-05-07T13:20:39;96701.81;;;23.22;42.62
78210;BME280;67485;48.816;9.930;2023-05-07T13:23:06;96706.16;;;22.89;42.88
78210;BME280;67485;48.816;9.930;2023-05-07T13:25:31;96709.78;;;22.65;44.67